Portada
METAR-TAF:

METAR-TAF

Aeropuertos :

Ponta Delgada, Azores, Portugal

Aeropuerto Juan Pablo II

latitud: 37-44N, longitud: 025-42W, altitud: 71 m

Observación

El informe se hizo hace 17 minutos, a las 09:30 UTC
Viento 9 kt del oeste-noroeste
Temperatura 13°C
Humedad 67%
Presión 1027 hPa
Visibilidad 10 km o más
Escasas nubes a una altura de 2500 ft

METAR: LPPD 190930Z 29009KT 9999 FEW025 13/07 Q1027

Hora: 09:47 (09:47 UTC)

Pronóstico

El informe se hizo hace 4 horas y 47 minutos, a las 05:00 UTC
Pronóstico válido del 19 a las 06 UTC al 20 a las 06 UTC
Viento 8 kt del norte
Visibilidad 10 km o más
Nubes dispersas a una altura de 2500 ft

TAF: LPPD 190500Z 1906/2006 35008KT 9999 SCT025

Observaciones y pronósticos meteorológicos de más de 4000 aeropuertos (mensajes METAR y TAF).

Los puntos amarillos y rojos representan las estaciones disponibles.

Ponga el ratón en el punto deseado para ver el nombre de la estación.

Haga clic para ver las observaciones y los pronósticos meteorológicos.

Para cambiar el mapa : haga clic en los botones verdes con una cruz de color negro para hacer un zoom, en el botón verde con un guión para alejar o en las flechas verdes para mapas adyacentes.


METAR-TAF: